Time;durP1;ratioP1;P1;durP2;ratioP2;P2;SDS_P1;SDS_P2;PMS_P1;PMS_P2;Temp;Humidity;BMP_temperature;BMP_pressure;BME280_temperature;BME280_humidity;BME280_pressure;Samples;Min_cycle;Max_cycle;Signal;HPM_P1;HPM_P2
2023/06/25 00:01:25;;;;;;;0.00;0.00;;;;;;;19.47;nan;100886.56;5014089;28;20285;-81
2023/06/25 00:03:51;;;;;;;0.10;0.10;;;;;;;19.44;nan;100889.69;5013540;28;20073;-81
2023/06/25 00:06:16;;;;;;;0.10;0.10;;;;;;;19.43;nan;100880.00;5013836;28;20030;-80
2023/06/25 00:08:42;;;;;;;0.10;0.10;;;;;;;19.43;nan;100877.31;5016964;28;20079;-82
2023/06/25 00:11:07;;;;;;;0.10;0.10;;;;;;;19.40;nan;100869.66;5015010;28;20393;-81
2023/06/25 00:13:32;;;;;;;0.10;0.10;;;;;;;19.33;nan;100876.84;5016219;28;20285;-79
2023/06/25 00:15:58;;;;;;;0.10;0.10;;;;;;;19.24;nan;100879.72;5012742;28;20030;-79
2023/06/25 00:18:26;;;;;;;0.10;0.10;;;;;;;19.19;nan;100876.81;5028151;28;20189;-79
2023/06/25 00:20:56;;;;;;;0.10;0.10;;;;;;;19.38;nan;100877.91;5001273;28;20136;-79
2023/06/25 00:23:22;;;;;;;0.10;0.10;;;;;;;19.64;nan;100870.94;5014176;28;20048;-79
2023/06/25 00:25:48;;;;;;;0.10;0.10;;;;;;;19.93;nan;100873.31;5013334;28;20136;-79
2023/06/25 00:28:14;;;;;;;0.10;0.10;;;;;;;20.17;nan;100872.91;5011132;28;20037;-79
2023/06/25 00:30:43;;;;;;;0.10;0.10;;;;;;;20.33;nan;100872.47;5017026;28;20040;-79
2023/06/25 00:33:08;;;;;;;0.10;0.10;;;;;;;20.48;nan;100875.78;5012457;28;20411;-79
2023/06/25 00:35:49;;;;;;;0.10;0.10;;;;;;;20.59;nan;100863.59;4996051;28;20037;-79
2023/06/25 00:38:14;;;;;;;0.10;0.10;;;;;;;20.61;nan;100866.06;5021349;28;20045;-78
2023/06/25 00:40:39;;;;;;;0.10;0.10;;;;;;;20.65;nan;100852.00;5030741;28;20630;-78
2023/06/25 00:43:05;;;;;;;0.10;0.10;;;;;;;20.66;nan;100860.91;5025305;28;20367;-78
2023/06/25 00:45:30;;;;;;;0.10;0.10;;;;;;;20.68;nan;100861.50;5029912;28;20399;-79
2023/06/25 00:47:58;;;;;;;0.10;0.10;;;;;;;20.69;nan;100857.78;4998159;28;20351;-78
2023/06/25 00:50:23;;;;;;;0.10;0.10;;;;;;;20.70;nan;100854.06;5009016;28;20546;-78
2023/06/25 00:52:50;;;;;;;0.10;0.10;;;;;;;20.76;nan;100855.91;5024619;28;20037;-79
2023/06/25 00:55:15;;;;;;;0.10;0.10;;;;;;;20.82;nan;100854.25;5021707;28;20042;-79
2023/06/25 00:57:41;;;;;;;0.03;0.03;;;;;;;20.79;nan;100855.50;5014254;28;20045;-78
2023/06/25 01:00:14;;;;;;;0.10;0.10;;;;;;;20.73;nan;100851.78;5004639;28;20046;-79
2023/06/25 01:02:50;;;;;;;0.10;0.10;;;;;;;20.73;nan;100851.78;4997657;28;20030;-79
2023/06/25 01:05:25;;;;;;;0.10;0.10;;;;;;;20.74;nan;100853.44;5022639;28;20447;-78
2023/06/25 01:07:53;;;;;;;0.00;0.00;;;;;;;20.74;nan;100852.63;5017789;28;20404;-79
2023/06/25 01:10:20;;;;;;;0.10;0.10;;;;;;;20.74;nan;100847.25;4997597;28;20113;-78
2023/06/25 01:12:45;;;;;;;0.10;0.10;;;;;;;20.78;nan;100841.25;5023155;28;20143;-79
2023/06/25 01:15:11;;;;;;;0.00;0.00;;;;;;;20.84;nan;100836.06;5033733;28;20261;-78
2023/06/25 01:17:39;;;;;;;0.10;0.10;;;;;;;20.84;nan;100841.44;5025400;28;20042;-78
2023/06/25 01:20:06;;;;;;;0.10;0.10;;;;;;;20.83;nan;100831.69;5022997;28;20046;-79
2023/06/25 01:22:32;;;;;;;0.10;0.10;;;;;;;20.83;nan;100837.06;5014278;28;20116;-78
2023/06/25 01:24:58;;;;;;;0.10;0.10;;;;;;;20.77;nan;100841.44;5017388;28;20037;-79
2023/06/25 01:27:32;;;;;;;0.10;0.10;;;;;;;20.70;nan;100838.78;5015016;28;20045;-78
2023/06/25 01:29:58;;;;;;;0.10;0.10;;;;;;;20.71;nan;100836.91;4997689;28;20124;-78
2023/06/25 01:32:24;;;;;;;0.10;0.10;;;;;;;20.63;nan;100835.28;5014008;28;20094;-78
2023/06/25 01:34:50;;;;;;;0.10;0.10;;;;;;;20.76;nan;100834.41;5021435;28;20440;-78
2023/06/25 01:37:18;;;;;;;0.10;0.10;;;;;;;20.69;nan;100834.44;5016693;28;20034;-78
2023/06/25 01:39:49;;;;;;;0.10;0.10;;;;;;;20.61;nan;100823.91;5020091;28;20034;-78
2023/06/25 01:42:14;;;;;;;;;;;;;;;20.54;nan;100828.44;5030853;28;20034;-78
2023/06/25 01:44:39;;;;;;;0.10;0.10;;;;;;;20.46;nan;100829.50;5013271;28;19913;-79
2023/06/25 01:47:05;;;;;;;0.10;0.10;;;;;;;20.33;nan;100832.19;5028713;28;20030;-79
2023/06/25 01:49:30;;;;;;;0.10;0.10;;;;;;;20.18;nan;100829.72;5025034;28;20046;-78
2023/06/25 01:51:56;;;;;;;0.10;0.10;;;;;;;20.06;nan;100834.06;5022053;28;20026;-78
2023/06/25 01:54:21;;;;;;;0.10;0.10;;;;;;;20.01;nan;100820.44;5017915;28;20038;-78
2023/06/25 01:56:47;;;;;;;0.10;0.10;;;;;;;19.98;nan;100819.00;4997744;28;20052;-78
2023/06/25 01:59:13;;;;;;;0.10;0.10;;;;;;;19.88;nan;100818.59;5024150;28;20034;-78
2023/06/25 02:01:39;;;;;;;0.10;0.10;;;;;;;19.72;nan;100815.28;5015137;28;20083;-78
2023/06/25 02:04:04;;;;;;;0.10;0.10;;;;;;;19.57;nan;100819.97;5015770;28;20530;-78
2023/06/25 02:06:30;;;;;;;0.10;0.10;;;;;;;19.42;nan;100817.44;4998733;28;20038;-79
2023/06/25 02:08:55;;;;;;;0.10;0.10;;;;;;;19.39;nan;100815.19;4997298;28;20432;-78
2023/06/25 02:11:21;;;;;;;0.00;0.00;;;;;;;19.36;nan;100806.75;5022655;28;20885;-79
2023/06/25 02:13:47;;;;;;;0.10;0.10;;;;;;;19.16;nan;100810.16;5027301;28;20040;-78
2023/06/25 02:16:13;;;;;;;0.10;0.10;;;;;;;18.98;nan;100808.06;5034252;28;20025;-79
2023/06/25 02:18:40;;;;;;;0.00;0.00;;;;;;;19.17;nan;100809.16;5026752;28;20447;-80
2023/06/25 02:21:05;;;;;;;0.10;0.10;;;;;;;19.20;nan;100814.09;5011392;28;20034;-79
2023/06/25 02:23:31;;;;;;;0.10;0.10;;;;;;;19.23;nan;100813.69;5013453;28;20052;-79
2023/06/25 02:25:56;;;;;;;0.10;0.10;;;;;;;19.18;nan;100812.66;5016936;28;20026;-79
2023/06/25 02:28:22;;;;;;;0.10;0.10;;;;;;;19.16;nan;100807.47;5016035;28;20045;-79
2023/06/25 02:30:47;;;;;;;0.10;0.10;;;;;;;19.25;nan;100806.28;5030521;28;20040;-79
2023/06/25 02:33:12;;;;;;;0.10;0.10;;;;;;;19.32;nan;100814.34;5000225;28;20061;-79
2023/06/25 02:35:39;;;;;;;0.10;0.10;;;;;;;19.38;nan;100805.50;5008638;28;20052;-79
2023/06/25 02:38:05;;;;;;;0.10;0.10;;;;;;;19.45;nan;100813.53;5018530;28;20057;-79
2023/06/25 02:40:30;;;;;;;0.10;0.10;;;;;;;19.47;nan;100811.47;5016394;28;20033;-79
2023/06/25 02:42:56;;;;;;;0.10;0.10;;;;;;;19.40;nan;100816.00;5006162;28;20037;-80
2023/06/25 02:45:22;;;;;;;0.10;0.10;;;;;;;19.44;nan;100814.59;5034388;28;20132;-79
2023/06/25 02:47:48;;;;;;;0.10;0.10;;;;;;;19.51;nan;100804.69;5018497;28;20030;-80
2023/06/25 02:50:14;;;;;;;0.10;0.10;;;;;;;19.59;nan;100817.91;4998766;28;20038;-81
2023/06/25 02:52:39;;;;;;;0.10;0.10;;;;;;;19.64;nan;100809.25;4994433;28;20029;-78
2023/06/25 02:55:05;;;;;;;0.10;0.10;;;;;;;19.60;nan;100808.00;5010807;28;20045;-77
2023/06/25 02:57:30;;;;;;;0.10;0.10;;;;;;;19.60;nan;100808.84;4994328;28;20120;-78
2023/06/25 02:59:57;;;;;;;0.10;0.10;;;;;;;19.62;nan;100814.81;5011773;28;20549;-81
2023/06/25 03:02:22;;;;;;;0.10;0.10;;;;;;;19.59;nan;100806.34;5004716;28;20121;-80
2023/06/25 03:04:48;;;;;;;0.10;0.10;;;;;;;19.50;nan;100803.88;5005028;28;20065;-77
2023/06/25 03:07:13;;;;;;;0.10;0.10;;;;;;;19.42;nan;100796.00;4994047;28;20470;-78
2023/06/25 03:09:38;;;;;;;0.10;0.10;;;;;;;19.43;nan;100800.34;5014823;28;20041;-78
2023/06/25 03:12:04;;;;;;;0.10;0.10;;;;;;;19.46;nan;100804.47;5018658;28;20113;-78
2023/06/25 03:14:30;;;;;;;0.10;0.10;;;;;;;19.49;nan;100806.75;5014343;28;20033;-77
2023/06/25 03:16:56;;;;;;;0.10;0.10;;;;;;;19.54;nan;100804.28;5000690;28;20042;-78
2023/06/25 03:19:21;;;;;;;0.10;0.10;;;;;;;19.52;nan;100801.81;5010966;28;20177;-81
2023/06/25 03:21:47;;;;;;;0.10;0.10;;;;;;;19.55;nan;100805.94;4992839;28;20084;-79
2023/06/25 03:24:12;;;;;;;0.10;0.10;;;;;;;19.56;nan;100812.13;5010799;28;20148;-80
2023/06/25 03:26:37;;;;;;;0.10;0.10;;;;;;;19.57;nan;100803.03;5005066;28;20030;-78
2023/06/25 03:29:03;;;;;;;0.10;0.10;;;;;;;19.54;nan;100804.28;5010837;28;20045;-80
2023/06/25 03:31:28;;;;;;;0.10;0.10;;;;;;;19.51;nan;100810.88;4993280;28;20458;-79
2023/06/25 03:33:53;;;;;;;0.10;0.10;;;;;;;19.52;nan;100807.19;5011382;28;20503;-80
2023/06/25 03:36:19;;;;;;;0.10;0.10;;;;;;;19.47;nan;100814.16;4998265;28;20108;-79
2023/06/25 03:38:44;;;;;;;0.10;0.10;;;;;;;19.41;nan;100806.94;5027192;28;20531;-80
2023/06/25 03:41:09;;;;;;;0.10;0.10;;;;;;;19.36;nan;100802.19;5003143;28;20042;-79
2023/06/25 03:43:35;;;;;;;0.10;0.10;;;;;;;19.37;nan;100797.66;5014075;28;20293;-80
2023/06/25 03:46:00;;;;;;;0.10;0.10;;;;;;;19.35;nan;100797.03;5014287;28;20034;-80
2023/06/25 03:48:25;;;;;;;0.10;0.10;;;;;;;19.35;nan;100794.34;5013893;28;20044;-80
2023/06/25 03:50:51;;;;;;;0.10;0.10;;;;;;;19.29;nan;100799.50;5017790;28;20655;-80
2023/06/25 03:53:17;;;;;;;0.10;0.10;;;;;;;19.29;nan;100785.25;5025376;28;20038;-80
2023/06/25 03:55:44;;;;;;;0.00;0.00;;;;;;;19.46;nan;100786.53;5016524;28;20417;-80
2023/06/25 03:58:09;;;;;;;0.00;0.00;;;;;;;19.60;nan;100786.56;5015369;28;20938;-80
2023/06/25 04:00:34;;;;;;;0.08;0.08;;;;;;;19.65;nan;100786.75;5016990;28;20125;-80
2023/06/25 04:03:00;;;;;;;0.10;0.10;;;;;;;19.67;nan;100788.22;5017985;28;20125;-79
2023/06/25 04:05:25;;;;;;;0.10;0.10;;;;;;;19.68;nan;100789.06;5018100;28;20096;-79
2023/06/25 04:07:50;;;;;;;0.10;0.10;;;;;;;19.63;nan;100786.97;5004219;28;20065;-80
2023/06/25 04:10:16;;;;;;;0.10;0.10;;;;;;;19.67;nan;100788.22;5015698;28;20034;-79
2023/06/25 04:12:41;;;;;;;0.10;0.10;;;;;;;19.93;nan;100789.28;5014843;28;20425;-82
2023/06/25 04:15:07;;;;;;;0.10;0.10;;;;;;;19.94;nan;100782.88;5022806;28;20045;-80
2023/06/25 04:17:32;;;;;;;0.10;0.10;;;;;;;19.92;nan;100795.66;5020215;28;20058;-79
2023/06/25 04:19:58;;;;;;;0.00;0.00;;;;;;;19.88;nan;100786.41;5027413;28;20117;-80
2023/06/25 04:22:23;;;;;;;0.10;0.10;;;;;;;19.87;nan;100787.41;5016095;28;20029;-79
2023/06/25 04:24:49;;;;;;;0.10;0.10;;;;;;;19.83;nan;100780.81;5018566;28;20060;-79
2023/06/25 04:27:15;;;;;;;0.10;0.10;;;;;;;19.81;nan;100789.06;5019589;28;20408;-80
2023/06/25 04:29:40;;;;;;;0.10;0.10;;;;;;;19.79;nan;100777.72;5024050;28;20122;-79
2023/06/25 04:32:06;;;;;;;0.10;0.10;;;;;;;19.78;nan;100789.47;5002479;28;20124;-80
2023/06/25 04:34:32;;;;;;;0.10;0.10;;;;;;;19.75;nan;100795.25;4972681;28;20042;-80
2023/06/25 04:36:57;;;;;;;0.10;0.10;;;;;;;19.69;nan;100788.88;5016353;28;20523;-79
2023/06/25 04:39:22;;;;;;;0.10;0.10;;;;;;;19.75;nan;100795.25;5018260;28;20120;-79
2023/06/25 04:41:48;;;;;;;0.10;0.10;;;;;;;19.78;nan;100796.69;5022702;28;20053;-79
2023/06/25 04:44:13;;;;;;;0.10;0.10;;;;;;;19.81;nan;100793.63;5022151;28;20105;-80
2023/06/25 04:46:39;;;;;;;0.10;0.10;;;;;;;19.88;nan;100797.13;5046985;28;20506;-79
2023/06/25 04:49:04;;;;;;;0.10;0.10;;;;;;;19.94;nan;100790.91;5039362;28;20109;-80
2023/06/25 04:51:30;;;;;;;0.10;0.10;;;;;;;20.09;nan;100791.56;5004071;28;20026;-79
2023/06/25 04:53:56;;;;;;;0.10;0.10;;;;;;;20.22;nan;100787.19;5017332;28;20435;-79
2023/06/25 04:56:21;;;;;;;0.10;0.10;;;;;;;20.32;nan;100798.31;5022842;28;20144;-79
2023/06/25 04:58:47;;;;;;;0.10;0.10;;;;;;;20.45;nan;100790.25;5016180;28;20722;-80
2023/06/25 05:01:12;;;;;;;0.10;0.10;;;;;;;20.63;nan;100796.84;5015179;28;20030;-79
2023/06/25 05:03:38;;;;;;;0.10;0.10;;;;;;;20.83;nan;100802.94;5015058;28;20030;-79
2023/06/25 05:06:04;;;;;;;0.10;0.10;;;;;;;20.90;nan;100801.06;5016086;28;20030;-79
2023/06/25 05:08:29;;;;;;;0.10;0.10;;;;;;;21.06;nan;100796.25;4996652;28;20100;-80
2023/06/25 05:10:54;;;;;;;0.10;0.10;;;;;;;21.10;nan;100802.84;5022639;28;20038;-80
2023/06/25 05:13:20;;;;;;;0.10;0.10;;;;;;;21.25;nan;100805.25;5024851;28;20647;-80
2023/06/25 05:15:48;;;;;;;0.10;0.10;;;;;;;21.32;nan;100806.88;5035304;28;20160;-80
2023/06/25 05:18:13;;;;;;;0.10;0.10;;;;;;;21.36;nan;100794.63;4997235;28;20030;-80
2023/06/25 05:20:39;;;;;;;0.10;0.10;;;;;;;21.46;nan;100804.13;4997282;28;20030;-80
2023/06/25 05:23:06;;;;;;;0.10;0.10;;;;;;;21.56;nan;100804.47;4999257;28;20038;-83
2023/06/25 05:25:32;;;;;;;0.10;0.10;;;;;;;21.65;nan;100795.09;5024677;28;20052;-78
2023/06/25 05:27:57;;;;;;;0.10;0.10;;;;;;;21.75;nan;100797.28;5032890;28;20614;-78
2023/06/25 05:30:23;;;;;;;0.10;0.10;;;;;;;21.86;nan;100799.28;5030650;28;20041;-79
2023/06/25 05:32:48;;;;;;;0.10;0.10;;;;;;;21.93;nan;100794.66;5030524;28;20037;-79
2023/06/25 05:35:13;;;;;;;0.10;0.10;;;;;;;22.00;nan;100798.13;5030406;28;20037;-79
2023/06/25 05:37:39;;;;;;;0.10;0.10;;;;;;;22.18;nan;100793.81;5011871;28;20291;-80
2023/06/25 05:40:05;;;;;;;0.10;0.10;;;;;;;22.29;nan;100789.63;5011163;28;20041;-82
2023/06/25 05:42:33;;;;;;;0.10;0.10;;;;;;;22.35;nan;100794.91;5010974;28;20030;-80
2023/06/25 05:44:59;;;;;;;0.03;0.03;;;;;;;22.56;nan;100796.34;5012092;28;20050;-80
2023/06/25 05:47:24;;;;;;;;;;;;;;;22.67;nan;100797.50;5011608;28;20041;-81
2023/06/25 05:49:49;;;;;;;;;;;;;;;22.86;nan;100806.38;4999684;28;19921;-79
2023/06/25 05:52:15;;;;;;;;;;;;;;;23.08;nan;100804.06;5012137;28;19921;-84
2023/06/25 05:54:40;;;;;;;;;;;;;;;23.42;nan;100810.63;4995115;28;19920;-78
2023/06/25 05:57:05;;;;;;;;;;;;;;;23.83;nan;100802.78;5013119;28;19918;-81
2023/06/25 05:59:30;;;;;;;0.10;0.10;;;;;;;24.31;nan;100802.56;5016667;28;20318;-80
2023/06/25 06:01:56;;;;;;;0.00;0.00;;;;;;;24.80;nan;100808.50;5015266;28;20475;-81
2023/06/25 06:04:22;;;;;;;0.00;0.00;;;;;;;25.31;nan;100805.16;5013853;28;20047;-78
2023/06/25 06:06:47;;;;;;;0.00;0.00;;;;;;;25.86;nan;100807.22;5013024;28;20116;-78
2023/06/25 06:09:13;;;;;;;0.00;0.00;;;;;;;26.33;nan;100804.13;5007538;28;20029;-78
2023/06/25 06:11:38;;;;;;;;;;;;;;;26.56;nan;100805.03;5016369;28;20037;-79
2023/06/25 06:14:04;;;;;;;;;;;;;;;26.83;nan;100808.59;5033481;28;19913;-79
2023/06/25 06:16:32;;;;;;;0.00;0.00;;;;;;;27.10;nan;100811.38;5033303;28;20370;-79
2023/06/25 06:18:57;;;;;;;0.00;0.00;;;;;;;27.41;nan;100817.16;5034532;28;20036;-80
2023/06/25 06:21:22;;;;;;;0.00;0.00;;;;;;;27.97;nan;100808.66;5022176;28;20038;-79
2023/06/25 06:23:48;;;;;;;0.00;0.00;;;;;;;28.43;nan;100805.41;4998507;28;20037;-80
2023/06/25 06:26:13;;;;;;;0.00;0.00;;;;;;;28.65;nan;100808.81;5010208;28;20038;-79
2023/06/25 06:28:39;;;;;;;0.00;0.00;;;;;;;29.03;nan;100817.66;5018126;28;20034;-79
2023/06/25 06:31:04;;;;;;;0.00;0.00;;;;;;;29.37;nan;100818.03;5016210;28;20088;-78
2023/06/25 06:33:31;;;;;;;0.00;0.00;;;;;;;29.76;nan;100806.63;5016893;28;20057;-79
2023/06/25 06:35:56;;;;;;;;;;;;;;;29.93;nan;100811.00;5014865;28;20046;-80
2023/06/25 06:38:21;;;;;;;;;;;;;;;30.09;nan;100812.59;5018116;28;20268;-79
2023/06/25 06:40:47;;;;;;;;;;;;;;;30.35;nan;100807.13;5016692;28;19983;-80
2023/06/25 06:43:12;;;;;;;;;;;;;;;30.74;nan;100814.63;5016290;28;19925;-80
2023/06/25 06:45:37;;;;;;;0.00;0.00;;;;;;;30.88;nan;100804.75;5005581;28;19948;-79
2023/06/25 06:48:05;;;;;;;0.00;0.00;;;;;;;31.18;nan;100811.13;4999110;28;20099;-79
2023/06/25 06:50:30;;;;;;;0.00;0.00;;;;;;;31.60;nan;100817.97;5019219;28;20045;-80
2023/06/25 06:52:56;;;;;;;0.00;0.00;;;;;;;32.02;nan;100811.06;5022141;28;20038;-80
2023/06/25 06:55:21;;;;;;;0.00;0.00;;;;;;;32.54;nan;100813.00;5010464;28;20436;-80
2023/06/25 06:57:46;;;;;;;;;;;;;;;32.53;nan;100821.47;5006442;28;20038;-80
2023/06/25 07:00:12;;;;;;;;;;;;;;;32.64;nan;100811.25;5016301;28;20213;-80
2023/06/25 07:02:37;;;;;;;;;;;;;;;32.85;nan;100811.78;5018473;28;19917;-80
2023/06/25 07:05:02;;;;;;;;;;;;;;;32.96;nan;100807.78;5021598;28;19956;-80
2023/06/25 07:07:28;;;;;;;0.00;0.00;;;;;;;33.00;nan;100814.31;5014988;28;20363;-81
2023/06/25 07:09:53;;;;;;;0.00;0.00;;;;;;;32.90;nan;100811.72;5015218;28;20037;-81
2023/06/25 07:12:19;;;;;;;0.00;0.00;;;;;;;32.92;nan;100814.97;5013179;28;20293;-80
2023/06/25 07:14:45;;;;;;;0.00;0.00;;;;;;;33.06;nan;100818.66;5014115;28;20278;-80
2023/06/25 07:17:10;;;;;;;;;;;;;;;33.08;nan;100816.41;5017704;28;20045;-80
2023/06/25 07:19:35;;;;;;;0.00;0.00;;;;;;;33.24;nan;100814.25;5021178;28;19918;-80
2023/06/25 07:22:01;;;;;;;0.00;0.00;;;;;;;33.68;nan;100813.06;5013799;28;20484;-80
2023/06/25 07:24:26;;;;;;;0.00;0.00;;;;;;;33.20;nan;100805.00;5016055;28;20385;-81
2023/06/25 07:26:51;;;;;;;0.00;0.00;;;;;;;33.59;nan;100807.44;5017410;28;20405;-80
2023/06/25 07:29:16;;;;;;;0.00;0.00;;;;;;;33.41;nan;100811.78;5018730;28;20064;-80
2023/06/25 07:31:42;;;;;;;0.00;0.00;;;;;;;33.67;nan;100816.09;5021280;28;20330;-80
2023/06/25 07:34:07;;;;;;;0.00;0.00;;;;;;;33.95;nan;100809.56;5026084;28;20320;-80
2023/06/25 07:36:32;;;;;;;0.00;0.00;;;;;;;33.91;nan;100810.47;5018491;28;20422;-80
2023/06/25 07:39:02;;;;;;;0.00;0.00;;;;;;;34.23;nan;100813.19;5019479;28;20304;-80
2023/06/25 07:41:27;;;;;;;0.00;0.00;;;;;;;34.30;nan;100814.69;5026227;28;20619;-80
2023/06/25 07:43:54;;;;;;;0.00;0.00;;;;;;;33.78;nan;100809.31;5021269;28;20109;-80
2023/06/25 07:46:20;;;;;;;0.00;0.00;;;;;;;34.11;nan;100806.53;5041162;28;20045;-81
2023/06/25 07:48:45;;;;;;;0.00;0.00;;;;;;;34.51;nan;100812.34;5039806;28;20034;-80
2023/06/25 07:51:10;;;;;;;0.00;0.00;;;;;;;34.54;nan;100806.25;5019898;28;20049;-80
2023/06/25 07:53:36;;;;;;;0.00;0.00;;;;;;;34.95;nan;100808.16;5004321;28;20030;-81
2023/06/25 07:56:01;;;;;;;0.00;0.00;;;;;;;35.21;nan;100797.41;5023490;28;20289;-80
2023/06/25 07:58:26;;;;;;;0.00;0.00;;;;;;;35.39;nan;100801.09;5019148;28;20488;-80
2023/06/25 08:00:51;;;;;;;0.00;0.00;;;;;;;35.64;nan;100803.25;5018140;28;20277;-79
2023/06/25 08:03:17;;;;;;;0.00;0.00;;;;;;;35.91;nan;100798.69;5017735;28;20113;-78
2023/06/25 08:05:42;;;;;;;0.00;0.00;;;;;;;36.22;nan;100795.94;5017511;28;20038;-81
2023/06/25 08:08:07;;;;;;;0.00;0.00;;;;;;;35.47;nan;100798.41;5018134;28;20038;-83
2023/06/25 08:10:33;;;;;;;0.00;0.00;;;;;;;35.75;nan;100805.72;5003254;28;20296;-82
2023/06/25 08:12:58;;;;;;;0.00;0.00;;;;;;;36.23;nan;100805.84;5016580;28;20277;-84
2023/06/25 08:15:23;;;;;;;0.00;0.00;;;;;;;36.45;nan;100779.34;5011554;28;20049;-80
2023/06/25 08:17:48;;;;;;;0.00;0.00;;;;;;;36.47;nan;100719.22;5019560;28;20038;-81
2023/06/25 08:20:14;;;;;;;0.00;0.00;;;;;;;36.79;nan;100701.44;5008646;28;20030;-80
2023/06/25 08:22:39;;;;;;;0.00;0.00;;;;;;;37.03;nan;100738.72;5015036;28;20257;-80
2023/06/25 08:25:19;;;;;;;0.00;0.00;;;;;;;36.13;nan;100735.34;5017027;28;20128;-80
2023/06/25 08:27:44;;;;;;;0.00;0.00;;;;;;;36.68;nan;100711.16;5005027;28;20041;-81
2023/06/25 08:30:10;;;;;;;0.00;0.00;;;;;;;36.66;nan;100730.78;5016446;28;20034;-80
2023/06/25 08:32:35;;;;;;;0.00;0.00;;;;;;;37.36;nan;100736.28;5001562;28;20026;-81
2023/06/25 08:35:01;;;;;;;0.00;0.00;;;;;;;37.99;nan;100695.16;4999896;28;20061;-83
2023/06/25 08:37:26;;;;;;;0.00;0.00;;;;;;;;;;4995174;28;20415;-80
2023/06/25 08:39:51;;;;;;;0.00;0.00;;;;;;;;;;4999186;28;20336;-81
2023/06/25 08:42:16;;;;;;;0.00;0.00;;;;;;;37.98;nan;100694.34;5021631;28;20026;-81
2023/06/25 08:44:41;;;;;;;0.00;0.00;;;;;;;38.08;nan;100695.94;5026501;28;20036;-81
2023/06/25 08:47:10;;;;;;;0.00;0.00;;;;;;;38.18;nan;100698.31;5010000;28;20356;-82
2023/06/25 08:49:38;;;;;;;0.00;0.00;;;;;;;38.46;nan;100695.09;5016217;28;20081;-82
2023/06/25 08:52:04;;;;;;;0.00;0.00;;;;;;;38.70;nan;100704.66;5016196;28;20030;-82
2023/06/25 08:54:29;;;;;;;0.00;0.00;;;;;;;38.44;nan;100691.81;5015403;28;20034;-82
2023/06/25 08:56:55;;;;;;;0.00;0.00;;;;;;;37.99;nan;100686.88;5014379;28;20030;-82
2023/06/25 08:59:20;;;;;;;0.00;0.00;;;;;;;38.33;nan;100685.06;5026604;28;20037;-82
2023/06/25 09:01:46;;;;;;;0.00;0.00;;;;;;;;;;5009604;28;20041;-82
2023/06/25 09:04:11;;;;;;;0.00;0.00;;;;;;;38.41;nan;100685.00;5019093;28;20071;-82
2023/06/25 09:06:39;;;;;;;0.00;0.00;;;;;;;38.41;nan;100682.25;5020670;28;20037;-82
2023/06/25 09:09:05;;;;;;;0.00;0.00;;;;;;;38.10;nan;100692.88;5018024;28;20621;-81
2023/06/25 09:11:31;;;;;;;0.00;0.00;;;;;;;38.31;nan;100681.84;5030294;28;20129;-82
2023/06/25 09:13:58;;;;;;;0.00;0.00;;;;;;;38.56;nan;100705.72;5004506;28;20124;-82
2023/06/25 09:16:23;;;;;;;0.00;0.00;;;;;;;38.73;nan;100682.66;5030350;28;20045;-82
2023/06/25 09:18:49;;;;;;;0.00;0.00;;;;;;;38.73;nan;100698.44;5028687;28;20177;-82
2023/06/25 09:21:14;;;;;;;0.00;0.00;;;;;;;39.17;nan;100680.31;5025936;28;20062;-82
2023/06/25 09:23:39;;;;;;;0.00;0.00;;;;;;;39.54;nan;100676.81;5021432;28;20025;-82
2023/06/25 09:26:06;;;;;;;0.00;0.00;;;;;;;40.23;nan;100669.53;5022075;28;20042;-82
2023/06/25 09:28:32;;;;;;;0.00;0.00;;;;;;;39.94;nan;100668.66;5007600;28;20065;-82
2023/06/25 09:30:57;;;;;;;0.00;0.00;;;;;;;39.55;nan;100672.94;5018382;28;20034;-82
2023/06/25 09:33:31;;;;;;;0.00;0.00;;;;;;;38.76;nan;100659.06;5028187;28;20037;-82
2023/06/25 09:36:03;;;;;;;0.00;0.00;;;;;;;39.36;nan;100657.69;5021192;28;20510;-82
2023/06/25 09:38:29;;;;;;;0.00;0.00;;;;;;;39.00;nan;100625.19;5017312;28;20537;-82
2023/06/25 09:40:58;;;;;;;0.00;0.00;;;;;;;38.82;nan;100647.44;5015167;28;20192;-82
2023/06/25 09:43:24;;;;;;;0.00;0.00;;;;;;;39.10;nan;100643.31;5021566;28;20088;-83
2023/06/25 09:45:51;;;;;;;0.00;0.00;;;;;;;39.29;nan;100649.91;5013707;28;20040;-82
2023/06/25 09:48:21;;;;;;;0.00;0.00;;;;;;;39.84;nan;100636.72;5012871;28;20030;-82
2023/06/25 09:50:48;;;;;;;0.00;0.00;;;;;;;40.30;nan;100662.28;5017815;28;20047;-82
2023/06/25 09:53:18;;;;;;;0.00;0.00;;;;;;;39.98;nan;100638.34;5022900;28;20112;-82
2023/06/25 09:55:45;;;;;;;0.00;0.00;;;;;;;39.64;nan;100632.06;5012387;28;20084;-82
2023/06/25 09:58:10;;;;;;;0.00;0.00;;;;;;;40.09;nan;100631.97;5017322;28;20061;-82
2023/06/25 10:00:37;;;;;;;0.00;0.00;;;;;;;40.56;nan;100638.88;5014436;28;20034;-82
2023/06/25 10:03:06;;;;;;;0.00;0.00;;;;;;;40.99;nan;100637.31;5019524;28;20056;-82
2023/06/25 10:05:32;;;;;;;0.00;0.00;;;;;;;40.18;nan;100634.56;5022509;28;20072;-82
2023/06/25 10:07:58;;;;;;;0.00;0.00;;;;;;;40.11;nan;100639.91;5024235;28;20046;-83
2023/06/25 10:10:27;;;;;;;0.00;0.00;;;;;;;40.21;nan;100705.09;5008119;28;20045;-79
2023/06/25 10:12:52;;;;;;;0.00;0.00;;;;;;;39.60;nan;100705.91;5002501;28;20044;-82
2023/06/25 10:15:28;;;;;;;0.00;0.00;;;;;;;40.43;nan;100695.50;5016526;28;20391;-82
2023/06/25 10:17:56;;;;;;;0.00;0.00;;;;;;;41.10;nan;100699.44;5034092;28;20514;-83
2023/06/25 10:20:33;;;;;;;0.00;0.00;;;;;;;40.90;nan;100694.91;5020727;28;20124;-81
2023/06/25 10:23:11;;;;;;;0.00;0.00;;;;;;;40.32;nan;100692.41;5016501;28;20474;-82
2023/06/25 10:25:39;;;;;;;0.00;0.00;;;;;;;40.38;nan;100695.75;5000137;28;20054;-84
2023/06/25 10:28:32;;;;;;;0.00;0.00;;;;;;;41.11;nan;100687.19;5013333;28;20509;-83
2023/06/25 10:30:59;;;;;;;0.00;0.00;;;;;;;41.30;nan;100680.16;5006584;28;20038;-85
2023/06/25 10:33:29;;;;;;;0.00;0.00;;;;;;;41.77;nan;100680.16;5024747;28;20037;-81
2023/06/25 10:35:56;;;;;;;0.00;0.00;;;;;;;41.68;nan;100682.31;5012241;28;20037;-81
2023/06/25 10:38:25;;;;;;;0.00;0.00;;;;;;;41.50;nan;100673.53;5024848;28;20048;-82
2023/06/25 10:40:51;;;;;;;0.00;0.00;;;;;;;41.83;nan;100668.78;5001038;28;20048;-82
2023/06/25 10:43:21;;;;;;;0.00;0.00;;;;;;;41.24;nan;100667.69;5013991;28;20025;-82
2023/06/25 10:45:51;;;;;;;0.00;0.00;;;;;;;41.83;nan;100671.53;5017872;28;20092;-82
2023/06/25 10:48:17;;;;;;;0.00;0.00;;;;;;;42.88;nan;100661.53;5031492;28;20038;-82
2023/06/25 10:50:43;;;;;;;0.00;0.00;;;;;;;42.71;nan;100655.22;5026135;28;20116;-83
2023/06/25 10:53:16;;;;;;;0.00;0.00;;;;;;;42.74;nan;100648.94;5018011;28;20588;-83
2023/06/25 10:55:53;;;;;;;0.00;0.00;;;;;;;42.73;nan;100652.88;5026392;28;20038;-82
2023/06/25 10:58:25;;;;;;;0.00;0.00;;;;;;;42.54;nan;100650.13;5012793;28;20034;-81
2023/06/25 11:00:58;;;;;;;0.00;0.00;;;;;;;42.71;nan;100643.31;5026940;28;20518;-82
2023/06/25 11:03:24;;;;;;;0.00;0.00;;;;;;;43.43;nan;100642.63;5032934;28;20038;-82
2023/06/25 11:05:50;;;;;;;0.00;0.00;;;;;;;43.28;nan;100636.03;5032618;28;20034;-82
2023/06/25 11:08:16;;;;;;;0.00;0.00;;;;;;;43.10;nan;100637.66;5016594;28;20449;-82
2023/06/25 11:10:42;;;;;;;0.00;0.00;;;;;;;42.82;nan;100634.03;5014734;28;20075;-82
2023/06/25 11:13:12;;;;;;;0.00;0.00;;;;;;;42.87;nan;100632.13;4996686;28;20065;-82
2023/06/25 11:15:42;;;;;;;0.00;0.00;;;;;;;43.53;nan;100630.88;5018485;28;20307;-82
2023/06/25 11:18:08;;;;;;;0.00;0.00;;;;;;;43.13;nan;100626.63;5016516;28;20103;-82
2023/06/25 11:20:34;;;;;;;0.00;0.00;;;;;;;42.67;nan;100623.78;5024166;28;20624;-82
2023/06/25 11:23:01;;;;;;;0.00;0.00;;;;;;;42.97;nan;100614.81;5019273;28;20033;-82
2023/06/25 11:25:28;;;;;;;0.00;0.00;;;;;;;42.69;nan;100615.84;5011128;28;20121;-82
2023/06/25 11:28:08;;;;;;;0.00;0.00;;;;;;;43.75;nan;100618.09;5017216;28;20041;-82
2023/06/25 11:30:33;;;;;;;;;;;;;;;44.16;nan;100609.13;4997958;28;20129;-82
2023/06/25 11:33:14;;;;;;;0.00;0.00;;;;;;;44.13;nan;100612.66;5019732;28;20000;-81
2023/06/25 11:35:40;;;;;;;;;;;;;;;43.10;nan;100605.09;5016434;28;20511;-82
2023/06/25 11:38:06;;;;;;;0.00;0.00;;;;;;;42.48;nan;100602.38;5024009;28;19975;-81
2023/06/25 11:40:33;;;;;;;0.00;0.00;;;;;;;42.46;nan;100599.16;5023525;28;20038;-82
2023/06/25 11:42:59;;;;;;;0.00;0.00;;;;;;;43.30;nan;100596.69;5020862;28;20048;-81
2023/06/25 11:45:25;;;;;;;0.00;0.00;;;;;;;43.51;nan;100599.81;5031356;28;20498;-82